Terminal Aerodrome Forecast
Issued by NWS

Home | Current Version | Previous Version | Text Only | Print | Product List | Glossary On
Versions: 1 2 3 4 5 6 7 8 9 10 11 12 13 14 15 16 17 18 19 20 21 22 23 24 25 26
000
FTUS42 KJAX 022321
TAFVQQ
TAF
KVQQ 022321Z 0300/0324 08005KT P6SM SCT040
     FM030300 VRB02KT 4SM BR SCT004 SCT035
     FM030700 00000KT 3SM BR BKN003
     FM031000 00000KT 1SM BR OVC003
     FM031400 12005KT P6SM BKN010
     FM031630 14007KT P6SM BKN035=

USA.gov is the U.S. government's official web portal to all federal, state and local government web resources and services.